sensor_id;sensor_type;location;lat;lon;timestamp;P1;durP1;ratioP1;P2;durP2;ratioP2
73550;SDS011;61816;53.582;10.096;2022-11-25T00:01:03;95.43;;;31.95;;
73550;SDS011;61816;53.582;10.096;2022-11-25T00:03:36;131.20;;;38.55;;
73550;SDS011;61816;53.582;10.096;2022-11-25T00:06:24;107.15;;;36.55;;
73550;SDS011;61816;53.582;10.096;2022-11-25T00:08:50;126.10;;;38.22;;
73550;SDS011;61816;53.582;10.096;2022-11-25T00:11:18;111.25;;;34.65;;
73550;SDS011;61816;53.582;10.096;2022-11-25T00:13:45;100.75;;;34.88;;
73550;SDS011;61816;53.582;10.096;2022-11-25T00:16:13;71.30;;;28.17;;
73550;SDS011;61816;53.582;10.096;2022-11-25T00:18:47;89.38;;;31.80;;
73550;SDS011;61816;53.582;10.096;2022-11-25T00:21:21;103.63;;;36.22;;
73550;SDS011;61816;53.582;10.096;2022-11-25T00:23:58;62.85;;;28.35;;
73550;SDS011;61816;53.582;10.096;2022-11-25T00:26:26;75.75;;;29.00;;
73550;SDS011;61816;53.582;10.096;2022-11-25T00:28:53;77.55;;;32.03;;
73550;SDS011;61816;53.582;10.096;2022-11-25T00:31:26;92.18;;;35.10;;
73550;SDS011;61816;53.582;10.096;2022-11-25T00:33:56;82.45;;;31.77;;
73550;SDS011;61816;53.582;10.096;2022-11-25T00:36:26;108.38;;;36.15;;
73550;SDS011;61816;53.582;10.096;2022-11-25T00:38:57;138.73;;;44.03;;
73550;SDS011;61816;53.582;10.096;2022-11-25T00:41:24;177.40;;;51.03;;
73550;SDS011;61816;53.582;10.096;2022-11-25T00:44:09;183.60;;;49.15;;
73550;SDS011;61816;53.582;10.096;2022-11-25T00:47:38;159.68;;;43.25;;
73550;SDS011;61816;53.582;10.096;2022-11-25T00:49:46;136.25;;;44.30;;
73550;SDS011;61816;53.582;10.096;2022-11-25T00:52:18;182.15;;;48.25;;
73550;SDS011;61816;53.582;10.096;2022-11-25T00:54:49;148.05;;;46.83;;
73550;SDS011;61816;53.582;10.096;2022-11-25T00:57:19;107.97;;;37.83;;
73550;SDS011;61816;53.582;10.096;2022-11-25T00:59:46;73.25;;;28.38;;
73550;SDS011;61816;53.582;10.096;2022-11-25T01:02:12;78.90;;;31.17;;
73550;SDS011;61816;53.582;10.096;2022-11-25T01:04:38;85.50;;;31.17;;
73550;SDS011;61816;53.582;10.096;2022-11-25T01:07:04;62.50;;;28.45;;
73550;SDS011;61816;53.582;10.096;2022-11-25T01:09:30;73.57;;;29.10;;
73550;SDS011;61816;53.582;10.096;2022-11-25T01:11:55;63.17;;;27.75;;
73550;SDS011;61816;53.582;10.096;2022-11-25T01:14:22;97.65;;;36.05;;
73550;SDS011;61816;53.582;10.096;2022-11-25T01:16:48;101.10;;;37.63;;
73550;SDS011;61816;53.582;10.096;2022-11-25T01:19:14;105.25;;;35.58;;
73550;SDS011;61816;53.582;10.096;2022-11-25T01:21:40;172.63;;;50.10;;
73550;SDS011;61816;53.582;10.096;2022-11-25T01:24:05;157.93;;;45.22;;
73550;SDS011;61816;53.582;10.096;2022-11-25T01:26:31;134.25;;;41.13;;
73550;SDS011;61816;53.582;10.096;2022-11-25T01:28:59;131.80;;;42.80;;
73550;SDS011;61816;53.582;10.096;2022-11-25T01:31:30;107.65;;;38.47;;
73550;SDS011;61816;53.582;10.096;2022-11-25T01:34:05;152.13;;;42.90;;
73550;SDS011;61816;53.582;10.096;2022-11-25T01:36:32;97.95;;;36.05;;
73550;SDS011;61816;53.582;10.096;2022-11-25T01:38:58;119.03;;;35.55;;
73550;SDS011;61816;53.582;10.096;2022-11-25T01:41:25;136.38;;;41.08;;
73550;SDS011;61816;53.582;10.096;2022-11-25T01:44:09;87.53;;;32.67;;
73550;SDS011;61816;53.582;10.096;2022-11-25T01:46:47;100.10;;;33.60;;
73550;SDS011;61816;53.582;10.096;2022-11-25T01:49:44;100.88;;;36.17;;
73550;SDS011;61816;53.582;10.096;2022-11-25T01:52:17;85.93;;;33.60;;
73550;SDS011;61816;53.582;10.096;2022-11-25T01:54:53;146.15;;;43.80;;
73550;SDS011;61816;53.582;10.096;2022-11-25T01:57:24;157.00;;;43.08;;
73550;SDS011;61816;53.582;10.096;2022-11-25T01:59:55;105.25;;;36.35;;
73550;SDS011;61816;53.582;10.096;2022-11-25T02:02:23;116.95;;;40.72;;
73550;SDS011;61816;53.582;10.096;2022-11-25T02:04:49;106.13;;;35.53;;
73550;SDS011;61816;53.582;10.096;2022-11-25T02:07:19;218.15;;;52.10;;
73550;SDS011;61816;53.582;10.096;2022-11-25T02:09:50;115.43;;;39.40;;
73550;SDS011;61816;53.582;10.096;2022-11-25T02:12:17;84.20;;;32.47;;
73550;SDS011;61816;53.582;10.096;2022-11-25T02:14:44;91.63;;;33.53;;
73550;SDS011;61816;53.582;10.096;2022-11-25T02:17:10;169.60;;;47.33;;
73550;SDS011;61816;53.582;10.096;2022-11-25T02:19:48;182.90;;;45.83;;
73550;SDS011;61816;53.582;10.096;2022-11-25T02:22:25;144.75;;;43.63;;
73550;SDS011;61816;53.582;10.096;2022-11-25T02:24:59;157.82;;;42.67;;
73550;SDS011;61816;53.582;10.096;2022-11-25T02:27:57;115.00;;;34.33;;
73550;SDS011;61816;53.582;10.096;2022-11-25T02:30:26;107.70;;;37.85;;
73550;SDS011;61816;53.582;10.096;2022-11-25T02:32:51;83.00;;;32.03;;
73550;SDS011;61816;53.582;10.096;2022-11-25T02:37:52;98.97;;;31.90;;
73550;SDS011;61816;53.582;10.096;2022-11-25T02:40:21;88.55;;;31.85;;
73550;SDS011;61816;53.582;10.096;2022-11-25T02:42:47;90.65;;;33.72;;
73550;SDS011;61816;53.582;10.096;2022-11-25T02:45:14;134.88;;;37.95;;
73550;SDS011;61816;53.582;10.096;2022-11-25T02:47:43;94.82;;;34.53;;
73550;SDS011;61816;53.582;10.096;2022-11-25T02:50:09;118.82;;;39.85;;
73550;SDS011;61816;53.582;10.096;2022-11-25T02:52:37;145.25;;;39.80;;
73550;SDS011;61816;53.582;10.096;2022-11-25T02:55:03;120.07;;;40.00;;
73550;SDS011;61816;53.582;10.096;2022-11-25T02:57:28;120.28;;;40.72;;
73550;SDS011;61816;53.582;10.096;2022-11-25T02:59:53;119.28;;;42.05;;
73550;SDS011;61816;53.582;10.096;2022-11-25T03:02:19;126.13;;;41.00;;
73550;SDS011;61816;53.582;10.096;2022-11-25T03:04:44;150.63;;;46.55;;
73550;SDS011;61816;53.582;10.096;2022-11-25T03:07:10;133.30;;;44.95;;
73550;SDS011;61816;53.582;10.096;2022-11-25T03:09:35;138.25;;;43.25;;
73550;SDS011;61816;53.582;10.096;2022-11-25T03:12:00;163.93;;;49.38;;
73550;SDS011;61816;53.582;10.096;2022-11-25T03:14:44;158.65;;;45.80;;
73550;SDS011;61816;53.582;10.096;2022-11-25T03:17:10;179.95;;;49.13;;
73550;SDS011;61816;53.582;10.096;2022-11-25T03:19:35;155.77;;;47.00;;
73550;SDS011;61816;53.582;10.096;2022-11-25T03:22:01;145.77;;;49.15;;
73550;SDS011;61816;53.582;10.096;2022-11-25T03:24:27;148.73;;;48.60;;
73550;SDS011;61816;53.582;10.096;2022-11-25T03:26:52;163.18;;;51.72;;
73550;SDS011;61816;53.582;10.096;2022-11-25T03:29:17;177.70;;;51.78;;
73550;SDS011;61816;53.582;10.096;2022-11-25T03:31:43;162.05;;;49.08;;
73550;SDS011;61816;53.582;10.096;2022-11-25T03:34:08;166.98;;;49.47;;
73550;SDS011;61816;53.582;10.096;2022-11-25T03:36:34;159.75;;;49.47;;
73550;SDS011;61816;53.582;10.096;2022-11-25T03:38:59;151.43;;;48.63;;
73550;SDS011;61816;53.582;10.096;2022-11-25T03:41:25;161.70;;;48.65;;
73550;SDS011;61816;53.582;10.096;2022-11-25T03:43:50;145.80;;;45.38;;
73550;SDS011;61816;53.582;10.096;2022-11-25T03:46:15;133.45;;;45.55;;
73550;SDS011;61816;53.582;10.096;2022-11-25T03:48:41;170.43;;;49.83;;
73550;SDS011;61816;53.582;10.096;2022-11-25T03:51:06;138.35;;;42.08;;
73550;SDS011;61816;53.582;10.096;2022-11-25T03:53:31;137.07;;;42.28;;
73550;SDS011;61816;53.582;10.096;2022-11-25T03:55:57;152.07;;;44.22;;
73550;SDS011;61816;53.582;10.096;2022-11-25T03:58:22;122.45;;;42.50;;
73550;SDS011;61816;53.582;10.096;2022-11-25T04:00:47;132.90;;;42.78;;
73550;SDS011;61816;53.582;10.096;2022-11-25T04:03:13;136.85;;;41.50;;
73550;SDS011;61816;53.582;10.096;2022-11-25T04:05:39;95.03;;;35.78;;
73550;SDS011;61816;53.582;10.096;2022-11-25T04:08:04;141.00;;;43.08;;
73550;SDS011;61816;53.582;10.096;2022-11-25T04:10:30;158.25;;;45.90;;
73550;SDS011;61816;53.582;10.096;2022-11-25T04:12:56;119.72;;;39.42;;
73550;SDS011;61816;53.582;10.096;2022-11-25T04:15:21;122.28;;;39.67;;
73550;SDS011;61816;53.582;10.096;2022-11-25T04:17:46;134.15;;;41.92;;
73550;SDS011;61816;53.582;10.096;2022-11-25T04:20:12;117.95;;;40.05;;
73550;SDS011;61816;53.582;10.096;2022-11-25T04:22:38;122.10;;;39.55;;
73550;SDS011;61816;53.582;10.096;2022-11-25T04:25:04;113.22;;;39.25;;
73550;SDS011;61816;53.582;10.096;2022-11-25T04:27:30;117.97;;;39.13;;
73550;SDS011;61816;53.582;10.096;2022-11-25T04:29:56;120.03;;;37.00;;
73550;SDS011;61816;53.582;10.096;2022-11-25T04:32:21;89.63;;;32.35;;
73550;SDS011;61816;53.582;10.096;2022-11-25T04:34:47;97.32;;;34.22;;
73550;SDS011;61816;53.582;10.096;2022-11-25T04:37:12;93.07;;;32.45;;
73550;SDS011;61816;53.582;10.096;2022-11-25T04:39:38;96.60;;;30.70;;
73550;SDS011;61816;53.582;10.096;2022-11-25T04:42:03;84.57;;;31.35;;
73550;SDS011;61816;53.582;10.096;2022-11-25T04:44:47;85.15;;;26.52;;
73550;SDS011;61816;53.582;10.096;2022-11-25T04:47:12;81.32;;;28.38;;
73550;SDS011;61816;53.582;10.096;2022-11-25T04:49:38;79.03;;;27.33;;
73550;SDS011;61816;53.582;10.096;2022-11-25T04:52:03;75.70;;;27.13;;
73550;SDS011;61816;53.582;10.096;2022-11-25T04:54:29;66.47;;;24.20;;
73550;SDS011;61816;53.582;10.096;2022-11-25T04:56:54;68.18;;;23.50;;
73550;SDS011;61816;53.582;10.096;2022-11-25T04:59:19;65.78;;;25.17;;
73550;SDS011;61816;53.582;10.096;2022-11-25T05:02:03;77.50;;;25.90;;
73550;SDS011;61816;53.582;10.096;2022-11-25T05:04:30;62.72;;;24.55;;
73550;SDS011;61816;53.582;10.096;2022-11-25T05:06:55;77.05;;;25.08;;
73550;SDS011;61816;53.582;10.096;2022-11-25T05:09:21;69.60;;;25.05;;
73550;SDS011;61816;53.582;10.096;2022-11-25T05:11:46;95.85;;;27.60;;
73550;SDS011;61816;53.582;10.096;2022-11-25T05:14:11;81.30;;;26.02;;
73550;SDS011;61816;53.582;10.096;2022-11-25T05:16:37;90.55;;;27.60;;
73550;SDS011;61816;53.582;10.096;2022-11-25T05:19:02;87.07;;;26.75;;
73550;SDS011;61816;53.582;10.096;2022-11-25T05:21:28;72.65;;;27.33;;
73550;SDS011;61816;53.582;10.096;2022-11-25T05:23:53;70.60;;;25.60;;
73550;SDS011;61816;53.582;10.096;2022-11-25T05:26:19;74.60;;;24.08;;
73550;SDS011;61816;53.582;10.096;2022-11-25T05:28:45;80.63;;;25.15;;
73550;SDS011;61816;53.582;10.096;2022-11-25T05:31:10;63.40;;;21.08;;
73550;SDS011;61816;53.582;10.096;2022-11-25T05:33:36;65.30;;;22.15;;
73550;SDS011;61816;53.582;10.096;2022-11-25T05:36:02;73.88;;;26.02;;
73550;SDS011;61816;53.582;10.096;2022-11-25T05:38:28;71.07;;;25.77;;
73550;SDS011;61816;53.582;10.096;2022-11-25T05:41:04;81.05;;;25.75;;
73550;SDS011;61816;53.582;10.096;2022-11-25T05:43:31;80.07;;;26.05;;
73550;SDS011;61816;53.582;10.096;2022-11-25T05:45:57;74.10;;;25.70;;
73550;SDS011;61816;53.582;10.096;2022-11-25T05:48:23;90.13;;;30.58;;
73550;SDS011;61816;53.582;10.096;2022-11-25T05:50:49;82.20;;;29.13;;
73550;SDS011;61816;53.582;10.096;2022-11-25T05:53:14;78.57;;;29.65;;
73550;SDS011;61816;53.582;10.096;2022-11-25T05:55:43;87.32;;;29.58;;
73550;SDS011;61816;53.582;10.096;2022-11-25T05:58:17;81.18;;;26.98;;
73550;SDS011;61816;53.582;10.096;2022-11-25T06:00:42;81.00;;;28.10;;
73550;SDS011;61816;53.582;10.096;2022-11-25T06:03:08;79.72;;;28.77;;
73550;SDS011;61816;53.582;10.096;2022-11-25T06:05:33;88.35;;;26.00;;
73550;SDS011;61816;53.582;10.096;2022-11-25T06:07:59;94.75;;;30.73;;
73550;SDS011;61816;53.582;10.096;2022-11-25T06:10:24;73.25;;;29.30;;
73550;SDS011;61816;53.582;10.096;2022-11-25T06:12:50;82.57;;;28.35;;
73550;SDS011;61816;53.582;10.096;2022-11-25T06:15:17;80.53;;;27.05;;
73550;SDS011;61816;53.582;10.096;2022-11-25T06:17:42;79.47;;;27.92;;
73550;SDS011;61816;53.582;10.096;2022-11-25T06:20:08;57.95;;;22.88;;
73550;SDS011;61816;53.582;10.096;2022-11-25T06:22:33;87.03;;;28.33;;
73550;SDS011;61816;53.582;10.096;2022-11-25T06:24:59;94.47;;;29.48;;
73550;SDS011;61816;53.582;10.096;2022-11-25T06:27:24;86.95;;;29.27;;
73550;SDS011;61816;53.582;10.096;2022-11-25T06:29:50;75.97;;;27.15;;
73550;SDS011;61816;53.582;10.096;2022-11-25T06:32:15;75.35;;;25.88;;
73550;SDS011;61816;53.582;10.096;2022-11-25T06:34:40;66.32;;;26.50;;
73550;SDS011;61816;53.582;10.096;2022-11-25T06:37:07;74.28;;;26.52;;
73550;SDS011;61816;53.582;10.096;2022-11-25T06:39:33;91.38;;;27.98;;
73550;SDS011;61816;53.582;10.096;2022-11-25T06:41:59;85.28;;;27.02;;
73550;SDS011;61816;53.582;10.096;2022-11-25T06:44:24;85.20;;;27.38;;
73550;SDS011;61816;53.582;10.096;2022-11-25T06:46:49;90.97;;;27.27;;
73550;SDS011;61816;53.582;10.096;2022-11-25T06:49:15;83.75;;;28.33;;
73550;SDS011;61816;53.582;10.096;2022-11-25T06:51:40;81.70;;;25.73;;
73550;SDS011;61816;53.582;10.096;2022-11-25T06:54:05;88.47;;;29.35;;
73550;SDS011;61816;53.582;10.096;2022-11-25T06:56:32;87.22;;;29.48;;
73550;SDS011;61816;53.582;10.096;2022-11-25T06:58:58;76.60;;;27.60;;
73550;SDS011;61816;53.582;10.096;2022-11-25T07:01:24;78.30;;;26.52;;
73550;SDS011;61816;53.582;10.096;2022-11-25T07:03:53;64.57;;;24.73;;
73550;SDS011;61816;53.582;10.096;2022-11-25T07:06:20;77.32;;;26.10;;
73550;SDS011;61816;53.582;10.096;2022-11-25T07:08:46;82.25;;;26.45;;
73550;SDS011;61816;53.582;10.096;2022-11-25T07:11:16;81.50;;;23.95;;
73550;SDS011;61816;53.582;10.096;2022-11-25T07:13:44;70.53;;;21.40;;
73550;SDS011;61816;53.582;10.096;2022-11-25T07:16:10;66.75;;;22.13;;
73550;SDS011;61816;53.582;10.096;2022-11-25T07:18:37;60.67;;;20.00;;
73550;SDS011;61816;53.582;10.096;2022-11-25T07:23:40;64.95;;;22.15;;
73550;SDS011;61816;53.582;10.096;2022-11-25T07:26:08;69.93;;;22.05;;
73550;SDS011;61816;53.582;10.096;2022-11-25T07:28:36;61.35;;;19.67;;
73550;SDS011;61816;53.582;10.096;2022-11-25T07:31:05;55.58;;;16.60;;
73550;SDS011;61816;53.582;10.096;2022-11-25T07:33:46;68.75;;;19.35;;
73550;SDS011;61816;53.582;10.096;2022-11-25T07:36:12;49.30;;;17.13;;
73550;SDS011;61816;53.582;10.096;2022-11-25T07:38:39;60.58;;;18.60;;
73550;SDS011;61816;53.582;10.096;2022-11-25T07:41:05;63.90;;;16.85;;
73550;SDS011;61816;53.582;10.096;2022-11-25T07:43:33;48.72;;;15.27;;
73550;SDS011;61816;53.582;10.096;2022-11-25T07:46:13;45.28;;;14.68;;
73550;SDS011;61816;53.582;10.096;2022-11-25T07:48:40;41.60;;;13.93;;
73550;SDS011;61816;53.582;10.096;2022-11-25T07:51:12;41.35;;;13.32;;
73550;SDS011;61816;53.582;10.096;2022-11-25T07:53:42;39.88;;;15.20;;
73550;SDS011;61816;53.582;10.096;2022-11-25T07:56:08;46.10;;;13.23;;
73550;SDS011;61816;53.582;10.096;2022-11-25T07:58:33;61.83;;;14.18;;
73550;SDS011;61816;53.582;10.096;2022-11-25T08:01:02;37.60;;;12.15;;
73550;SDS011;61816;53.582;10.096;2022-11-25T08:03:30;49.03;;;12.52;;
73550;SDS011;61816;53.582;10.096;2022-11-25T08:06:04;36.08;;;12.43;;
73550;SDS011;61816;53.582;10.096;2022-11-25T08:08:32;40.78;;;12.88;;
73550;SDS011;61816;53.582;10.096;2022-11-25T08:10:58;38.22;;;13.73;;
73550;SDS011;61816;53.582;10.096;2022-11-25T08:13:23;46.05;;;14.77;;
73550;SDS011;61816;53.582;10.096;2022-11-25T08:15:49;49.15;;;12.75;;
73550;SDS011;61816;53.582;10.096;2022-11-25T08:18:15;41.33;;;12.60;;
73550;SDS011;61816;53.582;10.096;2022-11-25T08:20:41;46.60;;;12.68;;
73550;SDS011;61816;53.582;10.096;2022-11-25T08:23:07;53.45;;;13.52;;
73550;SDS011;61816;53.582;10.096;2022-11-25T08:25:32;57.45;;;14.48;;
73550;SDS011;61816;53.582;10.096;2022-11-25T08:28:02;57.50;;;15.00;;
73550;SDS011;61816;53.582;10.096;2022-11-25T08:30:28;50.55;;;13.73;;
73550;SDS011;61816;53.582;10.096;2022-11-25T08:32:53;41.92;;;13.75;;
73550;SDS011;61816;53.582;10.096;2022-11-25T08:35:19;46.22;;;13.38;;
73550;SDS011;61816;53.582;10.096;2022-11-25T08:37:44;44.42;;;14.00;;
73550;SDS011;61816;53.582;10.096;2022-11-25T08:40:10;43.58;;;14.02;;
73550;SDS011;61816;53.582;10.096;2022-11-25T08:42:36;39.92;;;12.77;;
73550;SDS011;61816;53.582;10.096;2022-11-25T08:45:02;42.35;;;12.77;;
73550;SDS011;61816;53.582;10.096;2022-11-25T08:47:28;41.40;;;11.73;;
73550;SDS011;61816;53.582;10.096;2022-11-25T08:49:54;49.65;;;13.07;;
73550;SDS011;61816;53.582;10.096;2022-11-25T08:52:20;37.53;;;12.70;;
73550;SDS011;61816;53.582;10.096;2022-11-25T08:54:46;42.10;;;12.45;;
73550;SDS011;61816;53.582;10.096;2022-11-25T08:57:11;37.97;;;11.65;;
73550;SDS011;61816;53.582;10.096;2022-11-25T08:59:37;34.38;;;11.30;;
73550;SDS011;61816;53.582;10.096;2022-11-25T09:02:03;34.90;;;10.98;;
73550;SDS011;61816;53.582;10.096;2022-11-25T09:04:29;34.00;;;11.88;;
73550;SDS011;61816;53.582;10.096;2022-11-25T09:06:54;39.58;;;11.85;;
73550;SDS011;61816;53.582;10.096;2022-11-25T09:09:20;46.35;;;12.02;;
73550;SDS011;61816;53.582;10.096;2022-11-25T09:11:45;33.00;;;11.68;;
73550;SDS011;61816;53.582;10.096;2022-11-25T09:14:10;41.80;;;11.32;;
73550;SDS011;61816;53.582;10.096;2022-11-25T09:16:36;39.83;;;11.35;;
73550;SDS011;61816;53.582;10.096;2022-11-25T09:19:01;44.63;;;11.63;;
73550;SDS011;61816;53.582;10.096;2022-11-25T09:21:27;47.42;;;11.77;;
73550;SDS011;61816;53.582;10.096;2022-11-25T09:23:52;42.05;;;12.20;;
73550;SDS011;61816;53.582;10.096;2022-11-25T09:26:29;28.13;;;10.15;;
73550;SDS011;61816;53.582;10.096;2022-11-25T09:28:56;33.47;;;10.88;;
73550;SDS011;61816;53.582;10.096;2022-11-25T09:31:22;43.15;;;10.10;;
73550;SDS011;61816;53.582;10.096;2022-11-25T09:33:48;35.25;;;10.68;;
73550;SDS011;61816;53.582;10.096;2022-11-25T09:36:15;33.38;;;9.88;;
73550;SDS011;61816;53.582;10.096;2022-11-25T09:38:41;46.85;;;12.20;;
73550;SDS011;61816;53.582;10.096;2022-11-25T09:41:34;37.70;;;10.95;;
73550;SDS011;61816;53.582;10.096;2022-11-25T09:44:44;38.72;;;11.25;;
73550;SDS011;61816;53.582;10.096;2022-11-25T09:50:47;39.58;;;10.77;;
73550;SDS011;61816;53.582;10.096;2022-11-25T09:53:27;42.95;;;13.77;;
73550;SDS011;61816;53.582;10.096;2022-11-25T09:56:07;41.22;;;12.15;;
73550;SDS011;61816;53.582;10.096;2022-11-25T09:58:55;43.17;;;13.13;;
73550;SDS011;61816;53.582;10.096;2022-11-25T10:01:46;38.83;;;13.68;;
73550;SDS011;61816;53.582;10.096;2022-11-25T10:04:16;58.75;;;13.45;;
73550;SDS011;61816;53.582;10.096;2022-11-25T10:06:49;50.80;;;12.25;;
73550;SDS011;61816;53.582;10.096;2022-11-25T10:09:21;55.38;;;14.38;;
73550;SDS011;61816;53.582;10.096;2022-11-25T10:11:51;45.80;;;12.90;;
73550;SDS011;61816;53.582;10.096;2022-11-25T10:17:17;58.58;;;14.10;;
73550;SDS011;61816;53.582;10.096;2022-11-25T10:20:39;52.85;;;14.73;;
73550;SDS011;61816;53.582;10.096;2022-11-25T10:23:07;51.78;;;14.98;;
73550;SDS011;61816;53.582;10.096;2022-11-25T10:25:46;41.00;;;14.07;;
73550;SDS011;61816;53.582;10.096;2022-11-25T10:28:18;52.83;;;14.65;;
73550;SDS011;61816;53.582;10.096;2022-11-25T10:31:03;55.13;;;16.83;;
73550;SDS011;61816;53.582;10.096;2022-11-25T10:33:41;58.20;;;15.32;;
73550;SDS011;61816;53.582;10.096;2022-11-25T10:36:14;56.35;;;14.15;;
73550;SDS011;61816;53.582;10.096;2022-11-25T10:39:01;58.80;;;16.70;;
73550;SDS011;61816;53.582;10.096;2022-11-25T10:41:38;61.63;;;16.00;;
73550;SDS011;61816;53.582;10.096;2022-11-25T10:44:17;57.40;;;15.65;;
73550;SDS011;61816;53.582;10.096;2022-11-25T10:52:26;45.42;;;15.48;;
73550;SDS011;61816;53.582;10.096;2022-11-25T10:54:57;53.53;;;15.25;;
73550;SDS011;61816;53.582;10.096;2022-11-25T10:57:34;61.25;;;14.93;;
73550;SDS011;61816;53.582;10.096;2022-11-25T10:59:59;47.28;;;15.35;;
73550;SDS011;61816;53.582;10.096;2022-11-25T11:02:27;60.83;;;17.10;;
73550;SDS011;61816;53.582;10.096;2022-11-25T11:04:55;49.78;;;14.30;;
73550;SDS011;61816;53.582;10.096;2022-11-25T11:07:27;64.25;;;16.95;;
73550;SDS011;61816;53.582;10.096;2022-11-25T11:12:43;49.85;;;15.98;;
73550;SDS011;61816;53.582;10.096;2022-11-25T11:15:24;55.20;;;16.45;;
73550;SDS011;61816;53.582;10.096;2022-11-25T11:17:52;60.30;;;16.95;;
73550;SDS011;61816;53.582;10.096;2022-11-25T11:22:56;45.70;;;13.77;;
73550;SDS011;61816;53.582;10.096;2022-11-25T11:25:27;54.53;;;16.70;;
73550;SDS011;61816;53.582;10.096;2022-11-25T11:30:29;52.83;;;14.57;;
73550;SDS011;61816;53.582;10.096;2022-11-25T11:33:04;45.60;;;14.80;;
73550;SDS011;61816;53.582;10.096;2022-11-25T11:38:49;48.00;;;15.30;;
73550;SDS011;61816;53.582;10.096;2022-11-25T11:41:22;66.05;;;15.35;;
73550;SDS011;61816;53.582;10.096;2022-11-25T11:46:40;40.08;;;13.68;;
73550;SDS011;61816;53.582;10.096;2022-11-25T11:54:34;63.03;;;15.93;;
73550;SDS011;61816;53.582;10.096;2022-11-25T11:57:13;54.40;;;16.52;;
73550;SDS011;61816;53.582;10.096;2022-11-25T12:00:05;48.65;;;17.08;;
73550;SDS011;61816;53.582;10.096;2022-11-25T12:02:48;50.08;;;15.05;;
73550;SDS011;61816;53.582;10.096;2022-11-25T12:05:21;65.18;;;17.33;;
73550;SDS011;61816;53.582;10.096;2022-11-25T12:07:58;30.80;;;10.73;;
73550;SDS011;61816;53.582;10.096;2022-11-25T12:10:32;59.55;;;16.75;;
73550;SDS011;61816;53.582;10.096;2022-11-25T12:16:09;59.63;;;17.83;;
73550;SDS011;61816;53.582;10.096;2022-11-25T12:21:32;61.60;;;17.90;;
73550;SDS011;61816;53.582;10.096;2022-11-25T12:26:36;60.95;;;18.13;;
73550;SDS011;61816;53.582;10.096;2022-11-25T12:29:11;48.78;;;15.32;;
73550;SDS011;61816;53.582;10.096;2022-11-25T12:31:46;59.60;;;18.95;;
73550;SDS011;61816;53.582;10.096;2022-11-25T12:34:21;56.88;;;18.02;;
73550;SDS011;61816;53.582;10.096;2022-11-25T12:37:01;50.47;;;17.10;;
73550;SDS011;61816;53.582;10.096;2022-11-25T12:39:39;56.65;;;17.23;;
73550;SDS011;61816;53.582;10.096;2022-11-25T12:42:13;57.15;;;17.60;;
73550;SDS011;61816;53.582;10.096;2022-11-25T12:47:49;68.65;;;18.45;;
73550;SDS011;61816;53.582;10.096;2022-11-25T12:50:15;59.97;;;16.48;;
73550;SDS011;61816;53.582;10.096;2022-11-25T12:55:30;58.88;;;18.92;;
73550;SDS011;61816;53.582;10.096;2022-11-25T13:12:29;53.55;;;16.23;;
73550;SDS011;61816;53.582;10.096;2022-11-25T13:17:48;44.85;;;14.40;;
73550;SDS011;61816;53.582;10.096;2022-11-25T13:25:35;48.75;;;16.80;;
73550;SDS011;61816;53.582;10.096;2022-11-25T13:31:30;43.58;;;14.35;;
73550;SDS011;61816;53.582;10.096;2022-11-25T13:36:42;48.97;;;16.15;;
73550;SDS011;61816;53.582;10.096;2022-11-25T13:39:12;58.47;;;18.88;;
73550;SDS011;61816;53.582;10.096;2022-11-25T13:42:18;72.70;;;20.63;;
73550;SDS011;61816;53.582;10.096;2022-11-25T13:44:49;54.55;;;17.90;;
73550;SDS011;61816;53.582;10.096;2022-11-25T13:47:21;61.67;;;18.58;;
73550;SDS011;61816;53.582;10.096;2022-11-25T13:50:00;52.33;;;17.83;;
73550;SDS011;61816;53.582;10.096;2022-11-25T13:57:40;70.45;;;19.55;;
73550;SDS011;61816;53.582;10.096;2022-11-25T14:03:39;50.13;;;17.23;;
73550;SDS011;61816;53.582;10.096;2022-11-25T14:05:49;63.17;;;17.55;;
73550;SDS011;61816;53.582;10.096;2022-11-25T14:13:50;54.83;;;16.92;;
73550;SDS011;61816;53.582;10.096;2022-11-25T14:24:54;46.70;;;15.70;;
73550;SDS011;61816;53.582;10.096;2022-11-25T14:27:29;47.42;;;14.57;;
73550;SDS011;61816;53.582;10.096;2022-11-25T14:30:01;37.63;;;13.75;;
73550;SDS011;61816;53.582;10.096;2022-11-25T14:32:34;60.00;;;17.30;;
73550;SDS011;61816;53.582;10.096;2022-11-25T14:38:19;49.92;;;14.50;;
73550;SDS011;61816;53.582;10.096;2022-11-25T14:40:43;49.40;;;15.20;;
73550;SDS011;61816;53.582;10.096;2022-11-25T14:45:39;36.33;;;13.27;;
73550;SDS011;61816;53.582;10.096;2022-11-25T14:48:20;49.42;;;15.95;;
73550;SDS011;61816;53.582;10.096;2022-11-25T14:50:57;48.28;;;15.20;;
73550;SDS011;61816;53.582;10.096;2022-11-25T14:53:38;44.92;;;15.75;;
73550;SDS011;61816;53.582;10.096;2022-11-25T14:56:08;50.70;;;15.02;;
73550;SDS011;61816;53.582;10.096;2022-11-25T14:58:38;49.10;;;16.33;;
73550;SDS011;61816;53.582;10.096;2022-11-25T15:01:06;68.75;;;18.05;;
73550;SDS011;61816;53.582;10.096;2022-11-25T15:03:41;59.63;;;18.52;;
73550;SDS011;61816;53.582;10.096;2022-11-25T15:06:10;40.95;;;15.27;;
73550;SDS011;61816;53.582;10.096;2022-11-25T15:08:39;47.92;;;15.48;;
73550;SDS011;61816;53.582;10.096;2022-11-25T15:11:11;49.88;;;17.13;;
73550;SDS011;61816;53.582;10.096;2022-11-25T15:13:43;49.05;;;15.82;;
73550;SDS011;61816;53.582;10.096;2022-11-25T15:16:20;49.17;;;15.95;;
73550;SDS011;61816;53.582;10.096;2022-11-25T15:18:53;51.58;;;17.70;;
73550;SDS011;61816;53.582;10.096;2022-11-25T15:21:42;62.38;;;19.02;;
73550;SDS011;61816;53.582;10.096;2022-11-25T15:24:19;56.80;;;19.30;;
73550;SDS011;61816;53.582;10.096;2022-11-25T15:26:51;52.53;;;18.38;;
73550;SDS011;61816;53.582;10.096;2022-11-25T15:29:19;50.20;;;17.80;;
73550;SDS011;61816;53.582;10.096;2022-11-25T15:31:45;58.85;;;19.25;;
73550;SDS011;61816;53.582;10.096;2022-11-25T15:34:13;57.70;;;20.10;;
73550;SDS011;61816;53.582;10.096;2022-11-25T15:36:39;54.03;;;18.17;;
73550;SDS011;61816;53.582;10.096;2022-11-25T15:41:43;54.25;;;20.05;;
73550;SDS011;61816;53.582;10.096;2022-11-25T15:44:31;54.70;;;18.48;;
73550;SDS011;61816;53.582;10.096;2022-11-25T15:47:03;64.97;;;20.35;;
73550;SDS011;61816;53.582;10.096;2022-11-25T15:49:39;51.90;;;16.75;;
73550;SDS011;61816;53.582;10.096;2022-11-25T15:52:05;54.78;;;19.02;;
73550;SDS011;61816;53.582;10.096;2022-11-25T15:54:41;49.72;;;19.30;;
73550;SDS011;61816;53.582;10.096;2022-11-25T15:57:17;59.33;;;21.10;;
73550;SDS011;61816;53.582;10.096;2022-11-25T15:59:50;61.88;;;20.05;;
73550;SDS011;61816;53.582;10.096;2022-11-25T16:02:31;63.85;;;21.75;;
73550;SDS011;61816;53.582;10.096;2022-11-25T16:15:53;62.75;;;23.25;;
73550;SDS011;61816;53.582;10.096;2022-11-25T16:21:25;63.88;;;23.83;;
73550;SDS011;61816;53.582;10.096;2022-11-25T16:27:13;61.03;;;23.50;;
73550;SDS011;61816;53.582;10.096;2022-11-25T16:30:06;68.07;;;24.45;;